Time;durP1;ratioP1;P1;durP2;ratioP2;P2;SDS_P1;SDS_P2;PMS_P1;PMS_P2;Temp;Humidity;BMP_temperature;BMP_pressure;BME280_temperature;BME280_humidity;BME280_pressure;Samples;Min_cycle;Max_cycle;Signal;HPM_P1;HPM_P2
2022/04/09 00:01:22;;;;;;;7.45;4.50;;;;;;;6.40;72.14;98843.72;4976983;28;20115;-63
2022/04/09 00:04:06;;;;;;;9.40;4.95;;;;;;;6.40;72.16;98854.00;4976578;28;20406;-63
2022/04/09 00:06:50;;;;;;;8.68;5.22;;;;;;;6.42;72.15;98848.03;4975912;28;20472;-63
2022/04/09 00:09:35;;;;;;;9.43;4.10;;;;;;;6.43;72.14;98860.03;4976992;28;20062;-63
2022/04/09 00:12:19;;;;;;;9.68;4.38;;;;;;;6.39;72.48;98865.16;4977187;28;20093;-63
2022/04/09 00:15:04;;;;;;;8.95;4.30;;;;;;;6.38;72.22;98872.84;4977262;28;20049;-63
2022/04/09 00:17:48;;;;;;;8.77;4.18;;;;;;;6.36;72.22;98871.97;4975901;28;20077;-63
2022/04/09 00:20:32;;;;;;;10.15;4.05;;;;;;;6.38;72.19;98871.13;4976482;28;20046;-63
2022/04/09 00:23:17;;;;;;;9.52;4.10;;;;;;;6.37;72.05;98878.84;4976583;28;20057;-63
2022/04/09 00:26:01;;;;;;;11.70;4.05;;;;;;;6.34;71.84;98889.94;4976062;28;20446;-63
2022/04/09 00:28:45;;;;;;;9.95;3.70;;;;;;;6.37;72.03;98895.13;4976508;28;20070;-63
2022/04/09 00:31:29;;;;;;;10.15;3.85;;;;;;;6.38;72.21;98902.00;4976268;28;20050;-63
2022/04/09 00:34:13;;;;;;;9.00;4.60;;;;;;;6.37;71.80;98904.59;4976848;28;20046;-63
2022/04/09 00:36:57;;;;;;;9.98;3.95;;;;;;;6.37;72.11;98912.31;4975903;28;20401;-63
2022/04/09 00:39:41;;;;;;;9.25;3.72;;;;;;;6.33;72.09;98921.66;4975743;28;20457;-63
2022/04/09 00:42:25;;;;;;;10.43;4.05;;;;;;;6.29;71.79;98925.06;4976274;28;20086;-64
2022/04/09 00:45:11;;;;;;;9.43;3.70;;;;;;;6.31;71.77;98925.06;4975519;28;20074;-63
2022/04/09 00:47:55;;;;;;;7.32;3.92;;;;;;;6.28;71.97;98932.72;4975383;28;20113;-63
2022/04/09 00:50:39;;;;;;;;;;;;;;;6.28;71.98;98932.72;4975589;28;20131;-63
2022/04/09 00:53:25;;;;;;;8.10;4.07;;;;;;;6.28;72.02;98943.03;4976128;28;20361;-64
2022/04/09 00:56:13;;;;;;;9.70;4.28;;;;;;;6.25;72.13;98942.13;4975398;28;20046;-63
2022/04/09 00:59:01;;;;;;;10.40;4.22;;;;;;;6.25;71.84;98947.28;4974939;28;20483;-63
2022/04/09 01:01:46;;;;;;;8.60;3.65;;;;;;;6.25;72.05;98949.84;4975165;28;20065;-63
2022/04/09 01:04:31;;;;;;;;;;;;;;;6.26;72.20;98963.59;4976390;28;20130;-63
2022/04/09 01:07:15;;;;;;;14.02;4.28;;;;;;;6.26;72.31;98968.75;4976189;28;19973;-63
2022/04/09 01:10:00;;;;;;;9.23;4.47;;;;;;;6.27;71.79;98969.59;4976250;28;20062;-63
2022/04/09 01:12:44;;;;;;;9.52;4.07;;;;;;;6.27;72.44;98975.63;4975352;28;20105;-63
2022/04/09 01:15:28;;;;;;;7.50;3.92;;;;;;;6.29;71.89;98985.94;4974810;28;20054;-64
2022/04/09 01:18:12;;;;;;;12.60;4.75;;;;;;;6.30;72.37;98996.28;4975345;28;20049;-63
2022/04/09 01:20:58;;;;;;;6.28;3.65;;;;;;;6.31;72.07;99007.41;4975696;28;20492;-63
2022/04/09 01:23:42;;;;;;;8.02;4.20;;;;;;;6.31;72.23;99007.41;4975115;28;20478;-63
2022/04/09 01:26:26;;;;;;;8.88;4.28;;;;;;;6.29;72.39;99009.97;4974385;28;20057;-63
2022/04/09 01:29:11;;;;;;;;;;;;;;;6.29;72.35;99022.84;4975958;28;20101;-63
2022/04/09 01:31:54;;;;;;;12.52;4.47;;;;;;;6.29;72.24;99028.00;4974285;28;19921;-64
2022/04/09 01:34:39;;;;;;;13.00;4.82;;;;;;;6.29;72.25;99033.13;4975008;28;20074;-63
2022/04/09 01:37:23;;;;;;;13.45;4.60;;;;;;;6.26;72.37;99035.66;4975494;28;20053;-64
2022/04/09 01:40:08;;;;;;;10.25;4.50;;;;;;;6.22;72.20;99034.75;4974852;28;20049;-62
2022/04/09 01:42:52;;;;;;;11.07;4.15;;;;;;;6.22;72.31;99041.56;4974216;28;20104;-63
2022/04/09 01:45:36;;;;;;;13.57;4.65;;;;;;;6.22;72.13;99039.00;4975529;28;20077;-63
2022/04/09 01:48:20;;;;;;;11.18;4.30;;;;;;;6.20;72.18;99045.81;4975085;28;20081;-64
2022/04/09 01:51:04;;;;;;;;;;;;;;;6.21;72.42;99052.69;4974538;28;20050;-63
2022/04/09 01:53:48;;;;;;;11.70;4.15;;;;;;;6.19;72.33;99054.38;4974266;28;19921;-63
2022/04/09 01:56:32;;;;;;;10.52;3.92;;;;;;;6.18;72.17;99052.63;4975161;28;20049;-63
2022/04/09 01:59:16;;;;;;;13.57;4.43;;;;;;;6.18;71.95;99061.25;4975219;28;20053;-63
2022/04/09 02:02:00;;;;;;;9.98;3.95;;;;;;;6.17;72.14;99066.34;4974829;28;20054;-63
2022/04/09 02:04:44;;;;;;;10.65;4.75;;;;;;;6.17;72.29;99056.94;4975040;28;20132;-64
2022/04/09 02:07:28;;;;;;;9.55;3.83;;;;;;;6.19;72.10;99067.25;4974878;28;20524;-63
2022/04/09 02:10:12;;;;;;;15.48;4.68;;;;;;;6.19;72.29;99065.56;4975199;28;20054;-63
2022/04/09 02:12:56;;;;;;;11.80;5.13;;;;;;;6.19;72.33;99070.69;4974241;28;20061;-63
2022/04/09 02:15:40;;;;;;;20.05;4.32;;;;;;;6.20;72.02;99079.28;4974421;28;20050;-63
2022/04/09 02:18:24;;;;;;;8.20;3.58;;;;;;;6.21;72.14;99083.56;4974471;28;20057;-63
2022/04/09 02:21:10;;;;;;;11.75;4.78;;;;;;;6.22;71.97;99099.06;4974789;28;20042;-63
2022/04/09 02:23:54;;;;;;;12.90;4.20;;;;;;;6.20;72.59;99098.16;4973870;28;20058;-63
2022/04/09 02:26:38;;;;;;;9.02;3.63;;;;;;;6.20;72.36;99103.31;4974082;28;20173;-63
2022/04/09 02:29:22;;;;;;;9.27;4.57;;;;;;;6.19;72.10;99105.84;4974265;28;20189;-63
2022/04/09 02:32:06;;;;;;;10.32;4.15;;;;;;;6.18;72.18;99102.41;4974283;28;20078;-63
2022/04/09 02:34:53;;;;;;;;;;;;;;;6.17;72.14;99103.25;4975366;28;20525;-63
2022/04/09 02:37:38;;;;;;;6.20;3.83;;;;;;;6.18;72.07;99109.25;4974384;28;19972;-63
2022/04/09 02:40:22;;;;;;;7.13;3.85;;;;;;;6.17;72.33;99116.13;4973461;28;20045;-63
2022/04/09 02:43:06;;;;;;;10.73;3.97;;;;;;;6.18;71.99;99116.97;4974496;28;20081;-63
2022/04/09 02:45:50;;;;;;;13.93;4.22;;;;;;;6.18;72.40;99120.44;4973385;28;20053;-63
2022/04/09 02:48:34;;;;;;;11.98;4.07;;;;;;;6.19;72.51;99121.28;4974541;28;20100;-63
2022/04/09 02:51:18;;;;;;;12.98;4.90;;;;;;;6.20;72.62;99131.63;4973971;28;20521;-62
2022/04/09 02:54:02;;;;;;;10.25;3.75;;;;;;;6.19;72.11;99129.88;4974574;28;20521;-64
2022/04/09 02:56:49;;;;;;;13.32;4.32;;;;;;;6.19;72.31;99137.59;4974675;28;20050;-63
2022/04/09 02:59:33;;;;;;;14.70;5.13;;;;;;;6.19;72.63;99137.59;4974197;28;20133;-63
2022/04/09 03:02:17;;;;;;;11.90;4.50;;;;;;;6.20;72.21;99146.16;4973452;28;20062;-63
2022/04/09 03:05:01;;;;;;;12.70;5.10;;;;;;;6.21;72.77;99153.94;4974279;28;20050;-63
2022/04/09 03:07:45;;;;;;;9.68;4.53;;;;;;;6.20;72.29;99149.63;4974339;28;20134;-64
2022/04/09 03:10:29;;;;;;;14.80;4.97;;;;;;;6.20;72.29;99157.34;4974605;28;20189;-63
2022/04/09 03:13:13;;;;;;;8.55;4.80;;;;;;;6.21;71.95;99163.34;4973876;28;20049;-63
2022/04/09 03:15:57;;;;;;;13.38;4.20;;;;;;;6.20;72.25;99161.59;4974244;28;20146;-63
2022/04/09 03:18:41;;;;;;;9.35;4.65;;;;;;;6.19;72.09;99163.34;4976928;28;20046;-63
2022/04/09 03:21:25;;;;;;;14.73;4.63;;;;;;;6.19;72.53;99172.75;4978201;28;20134;-64
2022/04/09 03:24:08;;;;;;;12.02;4.55;;;;;;;6.19;72.34;99173.63;4977806;28;20078;-64
2022/04/09 03:26:52;;;;;;;14.55;5.20;;;;;;;6.18;72.48;99182.19;4977771;28;20158;-63
2022/04/09 03:29:36;;;;;;;12.70;4.20;;;;;;;6.18;72.65;99184.75;4977615;28;20074;-63
2022/04/09 03:32:21;;;;;;;6.45;3.92;;;;;;;6.18;72.27;99191.59;4978078;28;20089;-63
2022/04/09 03:35:06;;;;;;;;;;;;;;;6.17;72.58;99201.03;4977097;28;20077;-64
2022/04/09 03:37:49;;;;;;;12.30;5.15;;;;;;;6.16;72.46;99204.44;4977922;28;19920;-63
2022/04/09 03:40:33;;;;;;;9.95;5.95;;;;;;;6.16;72.53;99208.69;4976330;28;20069;-63
2022/04/09 03:43:17;;;;;;;14.05;5.47;;;;;;;6.16;72.35;99218.97;4977491;28;20086;-63
2022/04/09 03:46:01;;;;;;;8.20;4.55;;;;;;;6.15;72.59;99209.56;4977578;28;20442;-64
2022/04/09 03:48:45;;;;;;;8.32;4.22;;;;;;;6.16;72.39;99213.84;4977447;28;20049;-64
2022/04/09 03:51:29;;;;;;;9.98;4.93;;;;;;;6.16;72.76;99222.44;4977317;28;20046;-63
2022/04/09 03:54:13;;;;;;;11.32;5.07;;;;;;;6.14;72.47;99226.69;4977075;28;20189;-63
2022/04/09 03:56:58;;;;;;;;;;;;;;;6.14;72.71;99236.13;4977227;28;20164;-63
2022/04/09 03:59:43;;;;;;;9.65;4.78;;;;;;;6.12;72.58;99238.63;4976634;28;19925;-63
2022/04/09 04:02:27;;;;;;;15.60;4.60;;;;;;;6.11;72.42;99236.91;4976136;28;20105;-63
2022/04/09 04:05:11;;;;;;;10.50;5.30;;;;;;;6.11;72.83;99251.50;4976949;28;20082;-63
2022/04/09 04:07:55;;;;;;;10.10;4.35;;;;;;;6.11;72.45;99246.34;4977131;28;20101;-64
2022/04/09 04:10:39;;;;;;;11.73;4.53;;;;;;;6.10;72.74;99250.59;4976777;28;20136;-63
2022/04/09 04:13:23;;;;;;;13.23;4.32;;;;;;;6.10;72.83;99255.75;4975959;28;20065;-63
2022/04/09 04:16:07;;;;;;;11.07;4.50;;;;;;;6.09;72.49;99260.03;4977086;28;20046;-63
2022/04/09 04:18:51;;;;;;;13.52;4.50;;;;;;;6.08;72.49;99268.59;4976071;28;20165;-63
2022/04/09 04:21:34;;;;;;;7.43;5.10;;;;;;;6.09;72.78;99278.06;4977252;28;20244;-63
2022/04/09 04:24:23;;;;;;;7.70;4.60;;;;;;;6.07;72.54;99277.16;4976106;28;20062;-62
2022/04/09 04:27:07;;;;;;;9.43;3.88;;;;;;;6.07;72.19;99278.88;4976932;28;20089;-63
2022/04/09 04:29:51;;;;;;;10.48;4.18;;;;;;;6.06;72.42;99284.84;4976522;28;20137;-63
2022/04/09 04:32:35;;;;;;;9.10;3.75;;;;;;;6.05;72.57;99286.53;4976693;28;20100;-63
2022/04/09 04:35:19;;;;;;;11.88;4.53;;;;;;;6.04;72.40;99286.50;4976567;28;20042;-63
2022/04/09 04:38:03;;;;;;;9.25;4.60;;;;;;;6.03;72.50;99295.91;4976555;28;20429;-63
2022/04/09 04:40:47;;;;;;;17.48;6.20;;;;;;;6.01;72.55;99295.00;4976505;28;20053;-63
2022/04/09 04:43:35;;;;;;;10.20;4.72;;;;;;;6.00;72.53;99297.56;4976883;28;20050;-64
2022/04/09 04:46:19;;;;;;;11.73;4.50;;;;;;;5.99;72.27;99300.94;4975422;28;20073;-63
2022/04/09 04:49:03;;;;;;;;;;;;;;;5.95;72.59;99300.84;4976551;28;20058;-64
2022/04/09 04:51:47;;;;;;;9.98;4.68;;;;;;;5.93;72.59;99311.94;4976696;28;19921;-63
2022/04/09 04:54:31;;;;;;;13.00;4.95;;;;;;;5.92;72.86;99315.34;4975942;28;20053;-63
2022/04/09 04:57:15;;;;;;;11.35;4.20;;;;;;;5.92;72.51;99320.50;4975772;28;20061;-63
2022/04/09 04:59:59;;;;;;;10.55;4.38;;;;;;;5.92;71.97;99330.78;4976136;28;20046;-62
2022/04/09 05:02:43;;;;;;;11.02;4.50;;;;;;;5.92;72.29;99333.34;4976185;28;20062;-62
2022/04/09 05:05:27;;;;;;;8.70;4.53;;;;;;;5.93;72.43;99338.53;4975993;28;20570;-63
2022/04/09 05:08:11;;;;;;;13.85;3.97;;;;;;;5.92;72.56;99347.06;4975353;28;20113;-63
2022/04/09 05:10:55;;;;;;;14.00;4.38;;;;;;;5.93;72.31;99345.38;4975955;28;20049;-63
2022/04/09 05:13:39;;;;;;;13.30;5.03;;;;;;;5.91;72.36;99344.47;4975546;28;20101;-63
2022/04/09 05:16:23;;;;;;;15.40;3.88;;;;;;;5.90;72.06;99351.34;4976080;28;20402;-63
2022/04/09 05:19:07;;;;;;;9.52;4.63;;;;;;;5.89;72.21;99352.16;4974812;28;20050;-63
2022/04/09 05:21:51;;;;;;;13.60;4.75;;;;;;;5.90;72.64;99363.31;4975583;28;20130;-63
2022/04/09 05:24:35;;;;;;;11.75;5.00;;;;;;;5.90;72.29;99366.78;4975959;28;20142;-65
2022/04/09 05:27:19;;;;;;;14.63;5.43;;;;;;;5.89;72.32;99359.88;4975195;28;20177;-63
2022/04/09 05:30:05;;;;;;;11.65;4.38;;;;;;;5.88;72.00;99373.56;4975911;28;20053;-63
2022/04/09 05:32:49;;;;;;;13.30;5.13;;;;;;;5.89;72.92;99380.47;4975575;28;20065;-63
2022/04/09 05:35:33;;;;;;;13.68;4.38;;;;;;;5.89;72.64;99374.44;4975592;28;20069;-63
2022/04/09 05:38:17;;;;;;;10.90;4.07;;;;;;;5.90;72.90;99389.91;4974553;28;20136;-63
2022/04/09 05:41:01;;;;;;;7.97;4.05;;;;;;;5.89;72.31;99387.28;4974195;28;20077;-63
2022/04/09 05:43:45;;;;;;;12.18;4.25;;;;;;;5.89;72.49;99388.16;4975614;28;20045;-63
2022/04/09 05:46:29;;;;;;;8.73;4.43;;;;;;;5.88;72.56;99399.28;4975656;28;20049;-63
2022/04/09 05:49:13;;;;;;;;;;;;;;;5.87;72.24;99394.97;4974599;28;20093;-63
2022/04/09 05:51:58;;;;;;;12.68;4.32;;;;;;;5.87;72.37;99406.94;4975464;28;19921;-63
2022/04/09 05:54:41;;;;;;;7.63;4.88;;;;;;;5.87;72.61;99412.09;4974333;28;20130;-64
2022/04/09 05:57:25;;;;;;;9.73;4.80;;;;;;;5.87;72.35;99417.25;4974120;28;20513;-63
2022/04/09 06:00:10;;;;;;;11.00;4.57;;;;;;;5.85;72.06;99418.91;4974575;28;20049;-64
2022/04/09 06:02:54;;;;;;;10.45;4.00;;;;;;;5.85;72.84;99418.91;4973929;28;20073;-63
2022/04/09 06:05:38;;;;;;;12.95;4.10;;;;;;;5.85;72.45;99432.66;4975065;28;20089;-64
2022/04/09 06:08:22;;;;;;;10.48;4.82;;;;;;;5.86;72.34;99438.66;4973829;28;20069;-64
2022/04/09 06:11:06;;;;;;;13.13;4.95;;;;;;;5.85;72.61;99447.19;4974271;28;20101;-63
2022/04/09 06:13:50;;;;;;;8.80;4.75;;;;;;;5.86;72.13;99448.94;4975020;28;20049;-63
2022/04/09 06:16:38;;;;;;;11.02;4.55;;;;;;;5.85;72.85;99449.75;4973772;28;20045;-64
2022/04/09 06:19:22;;;;;;;14.05;3.85;;;;;;;5.78;72.70;99452.19;4974186;28;20101;-63
2022/04/09 06:22:06;;;;;;;10.35;4.55;;;;;;;5.76;72.63;99448.72;4974908;28;20526;-62
2022/04/09 06:24:51;;;;;;;10.02;4.45;;;;;;;5.74;72.62;99454.66;4974855;28;20069;-62
2022/04/09 06:27:39;;;;;;;;;;;;;;;5.73;72.46;99461.47;4975150;28;20098;-63
2022/04/09 06:30:23;;;;;;;11.93;4.70;;;;;;;5.72;72.75;99462.31;4974066;28;20000;-63
2022/04/09 06:33:07;;;;;;;15.30;5.28;;;;;;;5.71;72.39;99468.28;4975201;28;20522;-63
2022/04/09 06:35:51;;;;;;;10.63;5.10;;;;;;;5.69;72.76;99466.50;4974432;28;20050;-64
2022/04/09 06:38:35;;;;;;;12.18;5.00;;;;;;;5.68;72.42;99475.94;4975016;28;20096;-63
2022/04/09 06:41:19;;;;;;;12.63;4.97;;;;;;;5.68;72.25;99481.06;4973984;28;20046;-63
2022/04/09 06:44:03;;;;;;;;;;;;;;;5.68;72.49;99486.22;4975283;28;20101;-63
2022/04/09 06:46:47;;;;;;;14.00;5.45;;;;;;;5.66;72.38;99485.31;4974528;28;19928;-63
2022/04/09 06:49:31;;;;;;;16.63;5.70;;;;;;;5.65;72.16;99491.28;4974571;28;20142;-64
2022/04/09 06:52:16;;;;;;;14.75;6.30;;;;;;;5.68;72.32;99491.38;4976729;28;20137;-64
2022/04/09 06:54:59;;;;;;;16.63;5.97;;;;;;;5.64;72.19;99503.25;4978099;28;20178;-63
2022/04/09 06:57:44;;;;;;;20.05;6.32;;;;;;;5.65;72.20;99499.00;4978342;28;20101;-63
2022/04/09 07:00:28;;;;;;;;;;;;;;;5.64;72.57;99503.25;4978797;28;20046;-64
2022/04/09 07:03:13;;;;;;;10.93;5.15;;;;;;;5.66;72.25;99504.97;4976809;28;20412;-63
2022/04/09 07:05:57;;;;;;;12.32;5.03;;;;;;;5.61;72.66;99512.56;4978349;28;20097;-62
2022/04/09 07:08:42;;;;;;;15.65;6.10;;;;;;;5.61;73.03;99505.72;4978448;28;20046;-62
2022/04/09 07:11:26;;;;;;;14.07;5.97;;;;;;;5.63;72.31;99519.50;4977659;28;20053;-63
2022/04/09 07:14:10;;;;;;;15.80;6.03;;;;;;;5.61;72.75;99521.16;4978168;28;20546;-62
2022/04/09 07:16:58;;;;;;;15.52;5.40;;;;;;;5.59;72.75;99520.25;4978054;28;20079;-63
2022/04/09 07:19:43;;;;;;;14.40;5.88;;;;;;;5.62;73.18;99516.91;4977897;28;20138;-63
2022/04/09 07:22:27;;;;;;;22.45;6.55;;;;;;;5.64;72.32;99522.94;4977816;28;20101;-63
2022/04/09 07:25:11;;;;;;;14.55;5.82;;;;;;;5.64;72.77;99521.25;4977940;28;20049;-64
2022/04/09 07:27:54;;;;;;;13.52;6.40;;;;;;;5.65;72.98;99532.41;4977684;28;20069;-64
2022/04/09 07:30:38;;;;;;;15.18;6.28;;;;;;;5.63;72.71;99540.06;4978131;28;20054;-63
2022/04/09 07:33:22;;;;;;;15.30;6.50;;;;;;;5.64;72.51;99546.09;4976828;28;20045;-63
2022/04/09 07:36:06;;;;;;;14.85;6.45;;;;;;;5.63;72.68;99545.19;4977608;28;20041;-64
2022/04/09 07:38:50;;;;;;;;;;;;;;;5.61;72.38;99552.00;4978031;28;20097;-63
2022/04/09 07:41:34;;;;;;;21.98;5.57;;;;;;;5.57;73.04;99560.47;4977705;28;20134;-63
2022/04/09 07:44:18;;;;;;;15.45;7.22;;;;;;;5.60;72.46;99562.25;4977638;28;20053;-64
2022/04/09 07:47:02;;;;;;;17.27;5.97;;;;;;;5.61;72.92;99559.72;4977100;28;20081;-63
2022/04/09 07:49:49;;;;;;;17.45;6.53;;;;;;;5.61;72.37;99557.13;4976778;28;20438;-63
2022/04/09 07:52:33;;;;;;;17.88;5.80;;;;;;;5.61;72.33;99567.44;4977487;28;20046;-63
2022/04/09 07:55:17;;;;;;;24.92;6.85;;;;;;;5.62;72.68;99568.31;4977366;28;20061;-63
2022/04/09 07:58:01;;;;;;;18.75;5.22;;;;;;;5.63;72.67;99575.19;4976480;28;20054;-63
2022/04/09 08:00:45;;;;;;;10.45;5.60;;;;;;;5.63;72.73;99573.50;4976334;28;20407;-63
2022/04/09 08:03:30;;;;;;;15.52;5.45;;;;;;;5.66;72.85;99577.88;4976352;28;20094;-63
2022/04/09 08:06:14;;;;;;;16.52;5.60;;;;;;;5.65;72.62;99568.41;4976614;28;20414;-63
2022/04/09 08:08:58;;;;;;;23.95;6.07;;;;;;;5.64;72.73;99582.09;4976490;28;20125;-63
2022/04/09 08:11:41;;;;;;;21.17;6.60;;;;;;;5.63;72.56;99588.06;4976687;28;20054;-63
2022/04/09 08:14:26;;;;;;;14.27;4.95;;;;;;;5.66;72.45;99593.28;4976049;28;20058;-63
2022/04/09 08:17:10;;;;;;;12.95;5.13;;;;;;;5.63;72.41;99599.19;4976889;28;20053;-63
2022/04/09 08:19:55;;;;;;;14.60;6.03;;;;;;;5.67;72.41;99600.19;4976565;28;20517;-63
2022/04/09 08:22:41;;;;;;;17.45;6.10;;;;;;;5.68;72.58;99601.94;4976974;28;20042;-63
2022/04/09 08:25:25;;;;;;;13.48;4.93;;;;;;;5.72;72.73;99603.72;4975941;28;20105;-63
2022/04/09 08:28:09;;;;;;;16.33;5.32;;;;;;;5.74;72.32;99607.22;4976487;28;20135;-62
2022/04/09 08:30:53;;;;;;;25.05;6.05;;;;;;;5.75;72.79;99598.69;4976288;28;20462;-62
2022/04/09 08:33:39;;;;;;;18.88;4.18;;;;;;;5.78;72.43;99601.34;4976817;28;20058;-63
2022/04/09 08:36:23;;;;;;;18.85;5.55;;;;;;;5.81;72.75;99610.84;4976624;28;20049;-63
2022/04/09 08:39:07;;;;;;;13.13;5.15;;;;;;;5.84;72.37;99604.94;4976365;28;20087;-63
2022/04/09 08:41:52;;;;;;;18.80;5.28;;;;;;;5.88;72.45;99609.31;4976078;28;20053;-63
2022/04/09 08:44:36;;;;;;;14.30;5.65;;;;;;;5.90;72.77;99616.25;4976447;28;20513;-63
2022/04/09 08:47:20;;;;;;;10.20;4.53;;;;;;;5.93;72.50;99618.03;4976305;28;20133;-64
2022/04/09 08:50:07;;;;;;;17.48;4.85;;;;;;;5.98;72.53;99611.34;4975911;28;20049;-63
2022/04/09 08:52:52;;;;;;;14.68;5.63;;;;;;;6.02;72.40;99617.47;4975210;28;20045;-63
2022/04/09 08:55:36;;;;;;;;;;;;;;;6.06;72.22;99615.00;4975801;28;20105;-63
2022/04/09 08:58:20;;;;;;;10.70;4.05;;;;;;;6.05;72.30;99626.13;4975344;28;19921;-63
2022/04/09 09:01:04;;;;;;;12.75;4.13;;;;;;;6.09;71.79;99627.06;4975037;28;20053;-63
2022/04/09 09:03:48;;;;;;;13.10;4.75;;;;;;;6.09;72.48;99627.97;4976446;28;20066;-63
2022/04/09 09:06:39;;;;;;;13.70;4.68;;;;;;;6.15;72.04;99634.13;4975867;28;20070;-63
2022/04/09 09:09:27;;;;;;;13.57;4.40;;;;;;;6.17;71.75;99627.28;4975375;28;20117;-63
2022/04/09 09:12:12;;;;;;;10.38;4.38;;;;;;;6.20;72.21;99630.81;4974856;28;20093;-63
2022/04/09 09:14:58;;;;;;;16.27;4.03;;;;;;;6.23;72.17;99630.03;4975935;28;20129;-63
2022/04/09 09:17:42;;;;;;;13.20;4.55;;;;;;;6.26;72.29;99630.13;4975780;28;20142;-64
2022/04/09 09:20:26;;;;;;;14.57;4.65;;;;;;;6.28;71.59;99622.44;4974466;28;20457;-63
2022/04/09 09:23:19;;;;;;;13.15;4.45;;;;;;;6.31;71.90;99643.09;4975532;28;20054;-63
2022/04/09 09:26:04;;;;;;;7.90;3.75;;;;;;;6.31;71.58;99636.25;4974999;28;20513;-63
2022/04/09 09:28:57;;;;;;;14.13;4.93;;;;;;;6.35;71.68;99634.66;4975346;28;20097;-63
2022/04/09 09:31:45;;;;;;;11.73;3.90;;;;;;;6.36;71.73;99641.53;4974814;28;20074;-63
2022/04/09 09:34:30;;;;;;;9.52;3.80;;;;;;;6.35;71.58;99643.22;4975582;28;20045;-63
2022/04/09 09:37:24;;;;;;;12.10;4.30;;;;;;;6.38;71.76;99643.31;4974888;28;20050;-64
2022/04/09 09:40:09;;;;;;;13.02;3.95;;;;;;;6.42;71.43;99648.53;4975044;28;20130;-63
2022/04/09 09:43:13;;;;;;;8.50;3.42;;;;;;;6.43;71.30;99640.84;4974489;28;20513;-63
2022/04/09 09:45:57;;;;;;;13.73;4.32;;;;;;;6.45;71.10;99643.47;4975385;28;20082;-63
2022/04/09 09:48:41;;;;;;;13.10;4.47;;;;;;;6.47;71.52;99647.84;4974473;28;20049;-63
2022/04/09 09:51:25;;;;;;;12.38;4.97;;;;;;;6.48;71.33;99640.97;4975311;28;20057;-63
2022/04/09 09:54:11;;;;;;;10.75;4.22;;;;;;;6.51;71.17;99649.66;4974593;28;20046;-63
2022/04/09 09:56:55;;;;;;;10.35;3.80;;;;;;;6.49;71.43;99653.00;4974306;28;20053;-63
2022/04/09 09:59:39;;;;;;;13.65;4.25;;;;;;;6.49;71.30;99647.84;4974748;28;20511;-63
2022/04/09 10:02:24;;;;;;;15.15;4.50;;;;;;;6.50;71.19;99649.59;4975182;28;20066;-63
2022/04/09 10:05:08;;;;;;;11.00;3.88;;;;;;;6.49;70.93;99650.44;4974575;28;20042;-63
2022/04/09 10:07:53;;;;;;;;;;;;;;;6.51;70.87;99652.25;4974770;28;20057;-62
2022/04/09 10:10:41;;;;;;;12.93;3.63;;;;;;;6.50;71.28;99658.22;4975044;28;19932;-63
2022/04/09 10:13:25;;;;;;;7.18;3.63;;;;;;;6.53;70.86;99652.25;4975255;28;20065;-63
2022/04/09 10:16:12;;;;;;;;;;;;;;;6.50;70.57;99655.63;4974406;28;20093;-63
2022/04/09 10:19:00;;;;;;;13.95;4.72;;;;;;;6.52;70.88;99653.09;4973661;28;19925;-64
2022/04/09 10:21:48;;;;;;;14.50;4.35;;;;;;;6.55;70.90;99643.72;4974056;28;20126;-63
2022/04/09 10:24:33;;;;;;;13.40;4.03;;;;;;;6.60;71.01;99654.19;4974066;28;20134;-63
2022/04/09 10:27:35;;;;;;;9.63;3.72;;;;;;;6.63;70.62;99666.25;4973305;28;20046;-63
2022/04/09 10:30:26;;;;;;;11.13;3.75;;;;;;;6.65;70.62;99659.44;4973967;28;20144;-63
2022/04/09 10:33:22;;;;;;;8.05;3.10;;;;;;;6.63;70.69;99649.09;4974632;28;20520;-63
2022/04/09 10:36:07;;;;;;;13.30;4.63;;;;;;;6.63;70.78;99651.66;4973964;28;20049;-63
2022/04/09 10:39:23;;;;;;;9.52;3.83;;;;;;;6.62;70.73;99654.22;4974510;28;20125;-63
2022/04/09 10:42:08;;;;;;;9.18;3.50;;;;;;;6.60;70.50;99658.44;4974910;28;20061;-64
2022/04/09 10:44:53;;;;;;;8.82;3.40;;;;;;;6.56;70.81;99652.34;4974170;28;20053;-63
2022/04/09 10:48:11;;;;;;;11.95;4.22;;;;;;;6.56;70.63;99647.19;4974103;28;20056;-63
2022/04/09 10:51:06;;;;;;;11.48;3.78;;;;;;;6.55;70.75;99645.47;4974257;28;20050;-64
2022/04/09 10:53:51;;;;;;;9.35;4.18;;;;;;;6.58;70.76;99657.53;4973299;28;20053;-63
2022/04/09 10:56:44;;;;;;;12.65;3.60;;;;;;;6.57;70.40;99654.09;4973451;28;20085;-63
2022/04/09 10:59:28;;;;;;;10.18;3.58;;;;;;;6.60;70.75;99648.13;4974179;28;20134;-64
2022/04/09 11:02:15;;;;;;;10.20;3.80;;;;;;;6.60;70.70;99653.28;4973433;28;20406;-64
2022/04/09 11:05:19;;;;;;;7.40;3.33;;;;;;;6.55;70.40;99655.75;4974742;28;20050;-63
2022/04/09 11:08:23;;;;;;;9.18;3.20;;;;;;;6.55;70.39;99654.03;4973434;28;20046;-63
2022/04/09 11:11:08;;;;;;;10.47;3.63;;;;;;;6.55;70.45;99640.31;4973016;28;20476;-64
2022/04/09 11:13:53;;;;;;;7.10;3.25;;;;;;;6.58;70.04;99636.94;4973601;28;20285;-63
2022/04/09 11:16:38;;;;;;;8.68;3.72;;;;;;;6.59;70.24;99642.13;4974450;28;20113;-63
2022/04/09 11:19:21;;;;;;;;;;;;;;;6.60;70.60;99641.31;4974716;28;20045;-63
2022/04/09 11:22:06;;;;;;;10.02;3.80;;;;;;;6.62;70.10;99625.88;4974219;28;20313;-64
2022/04/09 11:24:50;;;;;;;7.38;3.33;;;;;;;6.62;70.30;99636.19;4974419;28;20414;-63
2022/04/09 11:27:35;;;;;;;10.60;4.20;;;;;;;6.64;70.10;99631.94;4973554;28;20097;-63
2022/04/09 11:30:20;;;;;;;8.23;3.58;;;;;;;6.66;70.30;99636.28;4974497;28;20061;-63
2022/04/09 11:33:04;;;;;;;9.60;3.67;;;;;;;6.69;70.46;99641.53;4973627;28;20124;-64
2022/04/09 11:35:48;;;;;;;11.30;4.60;;;;;;;6.74;70.28;99643.34;4974369;28;20113;-63
2022/04/09 11:38:33;;;;;;;8.48;3.83;;;;;;;6.75;69.79;99642.53;4974640;28;20070;-62
2022/04/09 11:41:20;;;;;;;6.75;3.97;;;;;;;6.78;70.14;99640.00;4976943;28;20049;-63
2022/04/09 11:44:04;;;;;;;10.43;4.00;;;;;;;6.79;69.75;99641.75;4977579;28;20042;-63
2022/04/09 11:46:48;;;;;;;;;;;;;;;6.80;69.74;99639.22;4977634;28;20537;-63
2022/04/09 11:49:32;;;;;;;7.93;3.97;;;;;;;6.82;69.76;99641.81;4977747;28;20415;-63
2022/04/09 11:52:27;;;;;;;9.70;3.85;;;;;;;6.84;69.90;99642.75;4977766;28;20042;-64
2022/04/09 11:55:13;;;;;;;6.75;3.25;;;;;;;6.84;69.62;99637.59;4976751;28;20073;-63
2022/04/09 11:57:57;;;;;;;8.10;3.28;;;;;;;6.86;69.63;99648.81;4977208;28;20049;-63
2022/04/09 12:00:43;;;;;;;7.57;4.38;;;;;;;6.88;69.47;99641.09;4977046;28;20401;-64
2022/04/09 12:03:27;;;;;;;7.80;3.53;;;;;;;6.86;69.95;99649.66;4976234;28;20053;-63
2022/04/09 12:06:12;;;;;;;7.93;3.75;;;;;;;6.88;69.39;99641.09;4977192;28;20042;-63
2022/04/09 12:08:55;;;;;;;7.47;4.15;;;;;;;6.89;69.89;99656.63;4976894;28;20093;-63
2022/04/09 12:11:42;;;;;;;8.00;3.47;;;;;;;6.90;69.53;99658.34;4976924;28;20177;-64
2022/04/09 12:14:27;;;;;;;7.25;3.47;;;;;;;6.90;69.56;99658.34;4976784;28;20058;-63
2022/04/09 12:17:15;;;;;;;9.02;3.28;;;;;;;6.91;69.51;99662.69;4975886;28;20139;-64
2022/04/09 12:19:59;;;;;;;5.82;3.38;;;;;;;6.89;69.58;99679.81;4976969;28;20049;-64
2022/04/09 12:22:54;;;;;;;7.20;3.88;;;;;;;6.89;69.68;99677.22;4977145;28;20061;-63
2022/04/09 12:25:44;;;;;;;3.97;2.85;;;;;;;6.89;69.56;99682.38;4976826;28;20049;-63
2022/04/09 12:28:32;;;;;;;5.70;3.22;;;;;;;6.89;69.14;99695.25;4976335;28;20128;-63
2022/04/09 12:31:24;;;;;;;5.70;3.35;;;;;;;6.90;69.24;99688.38;4975269;28;20177;-64
2022/04/09 12:34:08;;;;;;;6.70;2.45;;;;;;;6.90;69.46;99711.56;4976496;28;20096;-64
2022/04/09 12:36:58;;;;;;;;;;;;;;;6.90;69.25;99720.19;4976695;28;20046;-63
2022/04/09 12:39:44;;;;;;;6.28;2.90;;;;;;;6.92;69.20;99722.78;4976722;28;20436;-63
2022/04/09 12:42:30;;;;;;;5.10;2.75;;;;;;;6.93;69.68;99732.28;4975668;28;20050;-63
2022/04/09 12:45:27;;;;;;;6.72;4.32;;;;;;;6.92;69.40;99733.09;4975319;28;20046;-63
2022/04/09 12:48:13;;;;;;;5.47;3.78;;;;;;;6.90;69.82;99752.78;4976952;28;20533;-64
2022/04/09 12:50:56;;;;;;;4.53;2.65;;;;;;;6.88;69.39;99762.19;4975407;28;20104;-63
2022/04/09 12:53:42;;;;;;;5.75;3.70;;;;;;;6.85;69.86;99768.13;4976670;28;20556;-64
2022/04/09 12:56:27;;;;;;;2.88;2.47;;;;;;;6.85;69.57;99783.59;4975025;28;20049;-63
2022/04/09 12:59:12;;;;;;;3.75;3.25;;;;;;;6.80;69.34;99775.75;4975874;28;20109;-64
2022/04/09 13:01:55;;;;;;;4.05;2.85;;;;;;;6.78;69.38;99810.00;4976315;28;20085;-63
2022/04/09 13:04:39;;;;;;;7.80;3.30;;;;;;;6.74;69.85;99793.59;4976115;28;20077;-63
2022/04/09 13:07:23;;;;;;;4.18;3.42;;;;;;;6.68;69.23;99772.84;4976244;28;20049;-63